Flight Track Log - Related Links

Times and Time Zones

All times are in EDT time to prevent confusion due to time zone crossing. See the JBU1472 flight status page for this flight to view local times or setup timezone preferences in your user account.

Time Position Orientation Groundspeed Altitude Reporting Facility
EDT Latitude Longitude Course Direction KTS MPH feet Rate Location/Type
Sun 11:32:37 PM 26.0769 -80.1344 53° Northeast 153 176 1,100  Level Miami Center
Sun 11:33:51 PM 26.0847 -80.0700 82° East 226 260 2,500 1,985 Climbing Miami Center
Sun 11:34:50 PM 26.1094 -79.9942 70° East 266 306 5,500 3,072 Climbing Miami Center
Sun 11:35:00 PM 26.1555 -79.7974 48° Northeast  Level FlightAware Approximate
Sun 11:35:56 PM 26.1364 -79.9069 71° East 264 304 8,900  Level Miami Center
Sun 11:36:00 PM 26.2242 -79.6930 56° Northeast  Level FlightAware Approximate
Sun 11:36:56 PM 26.1608 -79.8289 71° East 289 333 11,100  Level Miami Center
Sun 11:37:00 PM 26.2950 -79.5908 53° Northeast  Level FlightAware Approximate
Sun 11:37:55 PM 26.2064 -79.7419 60° Northeast 294 338 12,700  Level Miami Center
Sun 11:38:56 PM 26.2644 -79.6556 53° Northeast 319 367 14,900 2,168 Climbing Miami Center
Sun 11:39:54 PM 26.3228 -79.5664 54° Northeast 348 400 17,000 1,831 Climbing Miami Center
Sun 11:40:54 PM 26.3972 -79.4917 42° Northeast 358 412 18,500 1,500 Climbing Miami Center
Sun 11:41:54 PM 26.4775 -79.4353 32° Northeast 367 422 20,000 1,488 Climbing Miami Center
Sun 11:42:55 PM 26.5831 -79.3703 29° Northeast 381 438 21,500 1,400 Climbing Miami Center
Sun 11:43:54 PM 26.6839 -79.3400 15° North 396 456 22,800 1,339 Climbing Miami Center
Sun 11:44:56 PM 26.8097 -79.3053 14° North 404 465 24,200 1,311 Climbing Miami Center
Sun 11:45:53 PM 26.9189 -79.2703 16° North 414 476 25,400 1,169 Climbing Miami Center
Sun 11:46:54 PM 27.0344 -79.2353 15° North 414 476 26,500 1,100 Climbing Miami Center
Sun 11:47:53 PM 27.1414 -79.2025 15° North 425 489 27,600 1,100 Climbing Miami Center
Sun 11:48:54 PM 27.2736 -79.1631 15° North 437 503 28,700 1,131 Climbing Miami Center
Sun 11:49:55 PM 27.3933 -79.1258 15° North 437 503 29,900 1,041 Climbing Miami Center
Sun 11:50:55 PM 27.5003 -79.0950 14° North 437 503 30,800 1,160 Climbing Miami Center
Sun 11:51:54 PM 27.6178 -79.0575 16° North 437 503 32,200 1,424 Climbing Miami Center
Sun 11:52:53 PM 27.7458 -79.0178 15° North 437 503 33,600 1,190 Climbing Miami Center
Sun 11:53:55 PM 27.8631 -78.9847 14° North 430 495 34,600 700 Climbing Miami Center
Sun 11:54:53 PM 27.9658 -78.9514 16° North 424 488 35,000 200 Climbing Miami Center
Sun 11:55:55 PM 28.0833 -78.9181 14° North 424 488 35,000  Level Miami Center
Sun 11:56:55 PM 28.2069 -78.8803 15° North 424 488 35,000 -50 Level Miami Center
Sun 11:57:54 PM 28.3183 -78.8447 16° North 419 482 34,900  Descending Miami Center
Sun 11:58:55 PM 28.4336 -78.8089 15° North 419 482 35,000 50 Climbing Miami Center
Sun 11:59:54 PM 28.5467 -78.7753 15° North 419 482 35,000  Level Miami Center
Mon 12:00:53 AM 28.6597 -78.7394 16° North 419 482 35,000  Level Miami Center
Mon 12:01:54 AM 28.7772 -78.7036 15° North 419 482 35,000  Level Miami Center
Mon 12:02:54 AM 28.8967 -78.6700 14° North 419 482 35,000  Level Miami Center
Mon 12:03:55 AM 29.0056 -78.6314 17° North 424 488 35,000  Level Miami Center
Mon 12:04:56 AM 29.1247 -78.5978 14° North 424 488 35,000  Level Miami Center
Mon 12:05:54 AM 29.2381 -78.5614 16° North 419 482 35,000  Level Miami Center
Mon 12:06:53 AM 29.3511 -78.5250 16° North 419 482 35,000  Level Miami Center
Mon 12:07:55 AM 29.4683 -78.4889 15° North 424 488 35,000  Level Miami Center
Mon 12:08:56 AM 29.5897 -78.4547 14° North 429 494 35,000  Level Miami Center
Mon 12:09:28 AM 29.6311 -78.4272 30° Northeast 429 494 35,000  Level Jacksonville Center
Mon 12:10:27 AM 29.7508 -78.3908 15° North 437 503 35,000  Level Jacksonville Center
Mon 12:11:27 AM 29.8644 -78.3544 16° North 430 495 35,000  Level Jacksonville Center
Mon 12:12:27 AM 29.9714 -78.3111 19° North 423 487 35,000  Level Jacksonville Center
Mon 12:13:27 AM 30.0956 -78.2811 12° North 428 493 35,000  Level Jacksonville Center
Mon 12:14:27 AM 30.2192 -78.2392 16° North 428 493 35,000  Level Jacksonville Center
Mon 12:15:27 AM 30.3408 -78.2019 15° North 428 493 35,000  Level Jacksonville Center
Mon 12:16:27 AM 30.4483 -78.1678 15° North 445 512 35,000  Level Jacksonville Center
Mon 12:17:27 AM 30.5594 -78.1308 16° North 445 512 35,000  Level Jacksonville Center
Mon 12:18:27 AM 30.6811 -78.0911 16° North 437 503 35,000  Level Jacksonville Center
Mon 12:19:27 AM 30.7967 -78.0539 15° North 446 513 35,000  Level Jacksonville Center
Mon 12:20:27 AM 30.9056 -78.0119 18° North 427 491 35,000  Level Jacksonville Center
Mon 12:21:27 AM 31.0461 -77.9706 14° North 441 507 35,000  Level Jacksonville Center
Mon 12:22:27 AM 31.1633 -77.9281 17° North 441 507 35,000  Level Jacksonville Center
Mon 12:23:27 AM 31.2828 -77.8828 18° North 441 507 35,000  Level Jacksonville Center
Mon 12:24:27 AM 31.4022 -77.8450 15° North 436 502 35,000 -50 Level Jacksonville Center
Mon 12:25:27 AM 31.5197 -77.8117 14° North 436 502 34,900  Descending Jacksonville Center
Mon 12:26:27 AM 31.6394 -77.7733 15° North 431 496 35,000 50 Climbing Jacksonville Center
Mon 12:27:27 AM 31.7586 -77.7303 17° North 431 496 35,000  Level Jacksonville Center
Mon 12:28:27 AM 31.8781 -77.6894 16° North 431 496 35,000  Level Jacksonville Center
Mon 12:29:27 AM 31.9975 -77.6506 15° North 436 502 35,000  Level Jacksonville Center
Mon 12:30:27 AM 32.1169 -77.6144 14° North 436 502 35,000  Level Jacksonville Center
Mon 12:31:27 AM 32.2364 -77.5756 15° North 436 502 35,000  Level Jacksonville Center
Mon 12:32:27 AM 32.3578 -77.5317 17° North 436 502 35,000  Level Jacksonville Center
Mon 12:33:27 AM 32.4750 -77.4903 17° North 441 507 35,000  Level Jacksonville Center
Mon 12:34:27 AM 32.5964 -77.4511 15° North 441 507 35,000  Level Jacksonville Center
Mon 12:35:27 AM 32.7178 -77.4092 16° North 446 513 35,000  Level Jacksonville Center
Mon 12:36:27 AM 32.8392 -77.3697 15° North 451 519 35,000  Level Jacksonville Center
Mon 12:38:12 AM 33.0500 -77.2961 16° North 461 531 35,000  Level Washington Center
Mon 12:39:12 AM 33.1714 -77.2564 15° North 455 524 35,000  Level Washington Center
Mon 12:40:12 AM 33.2908 -77.2139 17° North 455 524 35,000  Level Washington Center
Mon 12:41:11 AM 33.4147 -77.1717 16° North 460 529 35,000  Level Washington Center
Mon 12:42:11 AM 33.5361 -77.1289 16° North 460 529 35,000  Level Washington Center
Mon 12:43:12 AM 33.6597 -77.0864 16° North 460 529 35,000  Level Washington Center
Mon 12:44:12 AM 33.7814 -77.0436 16° North 460 529 35,000 -50 Level Washington Center
Mon 12:45:12 AM 33.9028 -77.0008 16° North 460 529 34,900  Descending Washington Center
Mon 12:46:14 AM 34.0242 -76.9603 15° North 455 524 35,000 50 Climbing Washington Center
Mon 12:47:13 AM 34.1458 -76.9169 16° North 455 524 35,000  Level Washington Center
Mon 12:48:12 AM 34.2672 -76.8736 16° North 455 524 35,000  Level Washington Center
Mon 12:49:13 AM 34.3886 -76.8303 16° North 455 524 35,000  Level Washington Center
Mon 12:50:12 AM 34.5122 -76.7867 16° North 455 524 35,000 -50 Level Washington Center
Mon 12:51:14 AM 34.6317 -76.7406 18° North 455 524 34,900  Descending Washington Center
Mon 12:52:13 AM 34.7550 -76.6994 15° North 455 524 35,000 50 Climbing Washington Center
Mon 12:53:14 AM 34.8786 -76.6556 16° North 455 524 35,000  Level Washington Center
Mon 12:54:13 AM 35.0061 -76.6139 15° North 461 531 35,000  Level Washington Center
Mon 12:55:13 AM 35.1131 -76.5697 19° North 461 531 35,000  Level Washington Center
Mon 12:56:13 AM 35.2344 -76.5278 16° North 461 531 35,000  Level Washington Center
Mon 12:57:12 AM 35.3619 -76.4808 17° North 461 531 35,000  Level Washington Center
Mon 12:58:12 AM 35.4792 -76.4339 18° North 461 531 35,000  Level Washington Center
Mon 12:59:14 AM 35.6047 -76.3917 15° North 461 531 35,000  Level Washington Center
Mon 01:00:12 AM 35.7281 -76.3469 16° North 461 531 35,000  Level Washington Center
Mon 01:01:13 AM 35.8494 -76.2992 18° North 461 531 35,000 -49 Level Washington Center
Mon 01:02:14 AM 35.9728 -76.2542 16° North 461 531 34,900  Descending Washington Center
Mon 01:03:12 AM 36.0981 -76.2114 15° North 461 531 35,000 51 Climbing Washington Center
Mon 01:04:12 AM 36.2214 -76.1661 16° North 461 531 35,000  Level Washington Center
Mon 01:05:12 AM 36.3428 -76.1181 18° North 461 531 35,000  Level Washington Center
Mon 01:06:12 AM 36.4681 -76.0722 16° North 461 531 35,000  Level Washington Center
Mon 01:07:14 AM 36.5892 -76.0264 17° North 461 531 35,000  Level Washington Center
Mon 01:08:12 AM 36.7250 -75.9728 18° North 461 531 35,000  Level Washington Center
Mon 01:09:11 AM 36.8419 -75.9319 16° North 469 540 35,000  Level Washington Center
Mon 01:10:13 AM 36.9839 -75.8806 16° North 479 551 35,000  Level Washington Center
Mon 01:11:12 AM 37.1092 -75.8314 17° North 479 551 35,000  Level Washington Center
Mon 01:12:12 AM 37.2322 -75.7850 17° North 473 544 35,000  Level Washington Center
Mon 01:13:11 AM 37.3597 -75.7381 16° North 473 544 35,000  Level Washington Center
Mon 01:14:11 AM 37.4828 -75.6781 21° North 473 544 35,000  Level Washington Center
Mon 01:15:12 AM 37.5997 -75.6022 27° Northeast 467 537 35,000 -49 Level Washington Center
Mon 01:16:13 AM 37.7183 -75.5261 27° Northeast 467 537 34,900 -49 Descending Washington Center
Mon 01:17:14 AM 37.8353 -75.4497 27° Northeast 467 537 34,900 50 Level Washington Center
Mon 01:18:14 AM 37.9539 -75.3706 28° Northeast 467 537 35,000 50 Climbing Washington Center
Mon 01:19:14 AM 38.0728 -75.2964 26° Northeast 467 537 35,000  Level Washington Center
Mon 01:20:12 AM 38.1892 -75.2139 29° Northeast 467 537 35,000  Level Washington Center
Mon 01:21:12 AM 38.3078 -75.1444 25° Northeast 467 537 35,000  Level Washington Center
Mon 01:22:14 AM 38.4200 -75.0592 31° Northeast 467 537 35,000 -50 Level Washington Center
Mon 01:23:12 AM 38.5364 -74.9811 28° Northeast 467 537 34,900  Descending Washington Center
Mon 01:24:12 AM 38.6528 -74.9086 26° Northeast 467 537 35,000 -148 Climbing Washington Center
Mon 01:25:14 AM 38.7689 -74.8275 29° Northeast 472 543 34,600 -1,866 Descending Washington Center
Mon 01:26:11 AM 38.8894 -74.7461 28° Northeast 467 537 31,300 -2,750 Descending Washington Center
Mon 01:27:14 AM 39.0117 -74.6647 27° Northeast 473 544 29,100 -2,182 Descending Washington Center
Mon 01:28:12 AM 39.1278 -74.5856 28° Northeast 473 544 26,900 -2,246 Descending Washington Center
Mon 01:30:05 AM 39.3286 -74.4478 28° Northeast 483 556 22,700 -2,150 Descending New York Center
Mon 01:31:05 AM 39.4417 -74.3731 27° Northeast 471 542 20,700 -1,966 Descending New York Center
Mon 01:32:04 AM 39.5458 -74.3003 28° Northeast 443 510 18,800 -1,815 Descending New York Center
Mon 01:33:04 AM 39.6381 -74.2133 36° Northeast 420 483 17,100 -1,563 Descending New York Center
Mon 01:34:03 AM 39.7222 -74.1175 41° Northeast 408 470 15,700 -1,400 Descending New York Center
Mon 01:35:04 AM 39.8019 -74.0294 40° Northeast 384 442 14,300 -1,350 Descending New York Center
Mon 01:36:03 AM 39.8831 -73.9575 34° Northeast 366 421 13,000 -1,300 Descending New York Center
Mon 01:37:04 AM 39.9722 -73.8939 29° Northeast 356 410 11,700 -1,000 Descending New York Center
Mon 01:38:03 AM 40.0550 -73.8353 28° Northeast 346 398 11,000 -700 Descending New York Center
Mon 01:39:04 AM 40.1444 -73.7686 30° Northeast 341 392 10,300 -1,050 Descending New York Center
Mon 01:40:03 AM 40.2208 -73.7122 29° Northeast 329 379 8,900 -1,361 Descending New York Center
Mon 01:41:03 AM 40.2953 -73.6556 30° Northeast 318 366 7,600 -1,438 Descending New York Center
Mon 01:42:04 AM 40.3714 -73.6014 28° Northeast 307 353 6,000 -1,400 Descending New York Center
Mon 01:43:03 AM 40.4436 -73.5472 30° Northeast 307 353 4,800 -1,160 Descending New York Center
Mon 01:44:03 AM 40.5167 -73.5392 North 281 323 3,700 -992 Descending New York Center
Mon 01:45:04 AM 40.5894 -73.5478 355° North 257 296 2,800 -744 Descending New York Center
Mon 01:46:04 AM 40.6456 -73.5581 352° North 236 272 2,200 -496 Descending New York Center
Mon 01:47:05 AM 40.6994 -73.5686 352° North 193 222 1,800 -200 Descending New York Center
Mon 01:48:04 AM 40.7319 -73.6028 321° Northwest 162 186 1,800  Level New York Center
Mon 01:49:06 AM 40.7517 -73.6528 298° West 152 175 1,800  Level New York Center
Mon 01:50:03 AM 40.7297 -73.6931 234° Southwest 145 167 1,800 -462 Level New York Center
Mon 01:51:29 AM 40.6667 -73.7333 206° Southwest 135 155 700 -767 Descending New York TRACON
Mon 01:53:00 AM 40.6333 -73.7667 237° Southwest  Level FlightAware Approximate
Mon 02:00:00 AM 40.6398 -73.7789 237° Southwest  Level Estimated
Mon 02:01:00 AM 40.6398 -73.7789 237° Southwest  Level Estimated
Mon 02:02:00 AM 40.6398 -73.7789 237° Southwest  Level Estimated
Mon 02:03:00 AM 40.6398 -73.7789 237° Southwest  Level Estimated
Mon 02:04:00 AM 40.6398 -73.7789 237° Southwest  Level Estimated

Login

Don't have an account? Register now (free) for customized features, flight alerts, and more!